Time;durP1;ratioP1;P1;durP2;ratioP2;P2;SDS_P1;SDS_P2;PMS_P1;PMS_P2;Temp;Humidity;BMP_temperature;BMP_pressure;BME280_temperature;BME280_humidity;BME280_pressure;Samples;Min_cycle;Max_cycle;Signal;HPM_P1;HPM_P2
2023/04/13 00:00:14;;;;;;;1.40;0.80;;;;;;;8.57;52.63;100405.03;5028491;28;20057;-83
2023/04/13 00:02:40;;;;;;;1.48;1.20;;;;;;;8.81;52.90;100446.94;5011712;28;20120;-82
2023/04/13 00:05:09;;;;;;;1.42;1.08;;;;;;;8.83;52.51;100441.72;5028396;28;20073;-83
2023/04/13 00:07:38;;;;;;;0.60;0.50;;;;;;;8.82;53.23;100452.94;5011304;28;20030;-83
2023/04/13 00:10:08;;;;;;;0.82;0.57;;;;;;;8.70;52.84;100446.59;5044683;28;20025;-84
2023/04/13 00:12:37;;;;;;;1.35;0.80;;;;;;;8.53;53.57;100431.84;5027913;28;20072;-84
2023/04/13 00:15:04;;;;;;;1.02;0.82;;;;;;;8.52;54.04;100439.66;5011545;28;20072;-83
2023/04/13 00:17:30;;;;;;;0.65;0.55;;;;;;;8.31;53.46;100421.59;5027694;28;20506;-83
2023/04/13 00:19:58;;;;;;;1.17;0.85;;;;;;;8.22;54.47;100429.72;5027987;28;20057;-82
2023/04/13 00:22:28;;;;;;;1.45;1.05;;;;;;;8.25;53.77;100445.03;4995547;28;20029;-82
2023/04/13 00:24:54;;;;;;;1.10;1.00;;;;;;;8.15;53.60;100437.78;5011382;28;20022;-82
2023/04/13 00:27:25;;;;;;;0.57;0.57;;;;;;;8.23;53.74;100452.00;5011313;28;20034;-82
2023/04/13 00:29:50;;;;;;;1.17;0.90;;;;;;;8.16;53.94;100440.31;5011311;28;20403;-82
2023/04/13 00:32:16;;;;;;;1.83;1.05;;;;;;;8.10;53.67;100417.34;5027322;28;20049;-82
2023/04/13 00:34:41;;;;;;;0.85;0.70;;;;;;;8.17;53.33;100436.00;5044138;28;20026;-82
2023/04/13 00:37:07;;;;;;;0.85;0.50;;;;;;;8.28;53.86;100444.09;5011288;28;20039;-82
2023/04/13 00:39:32;;;;;;;1.45;1.15;;;;;;;8.37;53.46;100448.91;5044222;28;20041;-83
2023/04/13 00:41:58;;;;;;;0.70;0.55;;;;;;;8.37;53.27;100448.06;5027347;28;20060;-83
2023/04/13 00:44:24;;;;;;;1.65;1.17;;;;;;;8.44;53.03;100450.28;5027554;28;20033;-83
2023/04/13 00:46:49;;;;;;;0.93;0.60;;;;;;;8.33;53.10;100439.56;5026019;28;20025;-82
2023/04/13 00:49:16;;;;;;;0.65;0.60;;;;;;;8.46;52.52;100447.69;5027491;28;20480;-83
2023/04/13 00:51:43;;;;;;;0.98;0.60;;;;;;;8.00;52.77;100391.16;5027216;28;20021;-83
2023/04/13 00:54:12;;;;;;;1.23;1.00;;;;;;;8.08;52.29;100390.81;5027162;28;20128;-82
2023/04/13 00:56:39;;;;;;;1.67;1.00;;;;;;;8.34;53.01;100429.22;5026963;28;20030;-82
2023/04/13 00:59:06;;;;;;;0.75;0.68;;;;;;;8.37;52.42;100442.91;5027212;28;20128;-83
2023/04/13 01:01:31;;;;;;;0.40;0.40;;;;;;;8.42;51.93;100446.13;5010437;28;20069;-82
2023/04/13 01:03:58;;;;;;;2.53;0.75;;;;;;;8.28;52.38;100429.47;5010830;28;20034;-83
2023/04/13 01:06:32;;;;;;;2.83;1.08;;;;;;;8.36;52.96;100441.22;5027136;28;20030;-83
2023/04/13 01:09:07;;;;;;;1.13;0.80;;;;;;;8.18;52.55;100428.19;5010519;28;20045;-84
2023/04/13 01:11:42;;;;;;;3.40;1.20;;;;;;;8.21;52.44;100432.38;5026770;28;20022;-82
2023/04/13 01:14:23;;;;;;;1.83;1.42;;;;;;;8.24;52.67;100448.53;5026725;28;20080;-82
2023/04/13 01:17:01;;;;;;;1.55;1.27;;;;;;;8.23;52.44;100446.84;5010153;28;20446;-82
2023/04/13 01:19:53;;;;;;;1.27;1.00;;;;;;;8.28;52.28;100454.41;5026129;28;20525;-83
2023/04/13 01:22:24;;;;;;;4.78;1.92;;;;;;;8.07;52.85;100414.91;5043217;28;20033;-83
2023/04/13 01:25:13;;;;;;;1.58;0.90;;;;;;;8.18;52.13;100443.66;5010236;28;20416;-82
2023/04/13 01:27:42;;;;;;;1.00;0.88;;;;;;;8.01;52.81;100415.16;5011750;28;20025;-83
2023/04/13 01:30:09;;;;;;;1.08;0.88;;;;;;;8.15;52.95;100441.19;5042709;28;20030;-83
2023/04/13 01:32:36;;;;;;;2.10;0.60;;;;;;;8.05;52.72;100447.63;5026108;28;20038;-83
2023/04/13 01:35:02;;;;;;;1.05;0.90;;;;;;;8.01;52.75;100440.94;5026202;28;20105;-82
2023/04/13 01:37:28;;;;;;;1.05;0.68;;;;;;;7.96;53.10;100435.97;5010103;28;20159;-82
2023/04/13 01:39:54;;;;;;;1.85;1.00;;;;;;;8.04;53.19;100440.78;5043234;28;20463;-82
2023/04/13 01:42:19;;;;;;;0.90;0.75;;;;;;;8.11;53.38;100446.53;5026660;28;20088;-82
2023/04/13 01:44:45;;;;;;;1.35;0.70;;;;;;;7.93;52.57;100437.81;5009766;28;20037;-83
2023/04/13 01:47:14;;;;;;;1.15;0.70;;;;;;;7.89;52.62;100436.28;5026313;28;20038;-83
2023/04/13 01:49:43;;;;;;;2.40;1.13;;;;;;;7.89;52.64;100415.69;5026014;28;20419;-82
2023/04/13 01:52:09;;;;;;;0.75;0.68;;;;;;;7.95;52.56;100436.84;5026171;28;20021;-82
2023/04/13 01:54:35;;;;;;;0.82;0.75;;;;;;;8.09;52.67;100453.50;5026667;28;20034;-82
2023/04/13 01:57:01;;;;;;;1.10;0.90;;;;;;;8.10;52.56;100448.28;5009663;28;20033;-82
2023/04/13 01:59:27;;;;;;;1.23;0.98;;;;;;;7.93;52.21;100423.19;5025975;28;20030;-83
2023/04/13 02:01:53;;;;;;;1.33;0.77;;;;;;;7.94;52.56;100431.78;5026405;28;20032;-83
2023/04/13 02:04:18;;;;;;;0.55;0.52;;;;;;;8.11;52.32;100451.69;5009803;28;20504;-83
2023/04/13 02:06:45;;;;;;;1.67;0.75;;;;;;;7.94;52.67;100444.66;4993369;28;20026;-83
2023/04/13 02:09:11;;;;;;;0.50;0.50;;;;;;;7.91;52.96;100445.63;5025769;28;20545;-82
2023/04/13 02:11:37;;;;;;;1.40;0.73;;;;;;;7.92;52.98;100446.44;5026160;28;20503;-82
2023/04/13 02:14:02;;;;;;;2.83;1.10;;;;;;;7.87;53.08;100444.09;5025833;28;20025;-82
2023/04/13 02:16:28;;;;;;;1.55;0.98;;;;;;;7.98;53.08;100451.38;5009757;28;20030;-83
2023/04/13 02:18:53;;;;;;;1.58;1.08;;;;;;;7.96;52.90;100455.72;5009799;28;20036;-83
2023/04/13 02:21:19;;;;;;;0.70;0.70;;;;;;;7.97;52.80;100460.84;4993322;28;20030;-82
2023/04/13 02:23:44;;;;;;;1.27;0.77;;;;;;;7.85;53.47;100455.31;5026426;28;20045;-83
2023/04/13 02:26:15;;;;;;;1.33;1.10;;;;;;;7.83;53.19;100464.84;5026095;28;20034;-82
2023/04/13 02:28:40;;;;;;;0.75;0.65;;;;;;;7.75;53.26;100447.97;5025616;28;20080;-83
2023/04/13 02:31:06;;;;;;;0.70;0.70;;;;;;;7.47;53.47;100432.78;5026049;28;20488;-82
2023/04/13 02:33:32;;;;;;;1.58;1.17;;;;;;;7.56;54.05;100456.47;5025702;28;20526;-82
2023/04/13 02:35:58;;;;;;;1.92;1.30;;;;;;;7.53;53.97;100472.88;5025968;28;20088;-82
2023/04/13 02:38:25;;;;;;;1.95;1.00;;;;;;;7.54;54.13;100464.25;5009460;28;20120;-82
2023/04/13 02:40:54;;;;;;;2.20;1.45;;;;;;;7.38;53.73;100452.91;5009470;28;20064;-83
2023/04/13 02:43:20;;;;;;;2.58;0.82;;;;;;;7.34;54.17;100443.59;5025280;28;20034;-83
2023/04/13 02:45:45;;;;;;;2.58;0.80;;;;;;;7.53;54.37;100457.44;5009300;28;20026;-82
2023/04/13 02:48:11;;;;;;;1.02;0.80;;;;;;;7.56;53.53;100449.59;5025878;28;20033;-83
2023/04/13 02:50:36;;;;;;;1.60;1.00;;;;;;;7.55;53.15;100470.25;5025639;28;20106;-82
2023/04/13 02:53:02;;;;;;;1.77;1.00;;;;;;;7.31;54.44;100428.28;5025821;28;20039;-83
2023/04/13 02:55:27;;;;;;;1.70;1.42;;;;;;;7.42;54.00;100451.88;5009299;28;20483;-82
2023/04/13 02:57:53;;;;;;;1.75;1.30;;;;;;;7.39;53.50;100452.84;4992706;28;20408;-86
2023/04/13 03:00:19;;;;;;;0.93;0.88;;;;;;;7.42;53.49;100426.13;5009652;28;20029;-86
2023/04/13 03:02:45;;;;;;;1.35;0.98;;;;;;;7.66;53.65;100468.94;5009737;28;20029;-87
2023/04/13 03:05:11;;;;;;;1.02;0.82;;;;;;;7.65;53.42;100464.69;5009086;28;20029;-87
2023/04/13 03:07:37;;;;;;;2.03;1.15;;;;;;;7.71;52.50;100464.44;5025679;28;20036;-86
2023/04/13 03:10:04;;;;;;;1.40;0.90;;;;;;;7.73;53.18;100461.81;5010836;28;20399;-85
2023/04/13 03:12:33;;;;;;;0.70;0.70;;;;;;;7.79;52.97;100468.47;4996559;28;20022;-86
2023/04/13 03:15:03;;;;;;;3.58;1.45;;;;;;;7.60;53.36;100456.31;5029117;28;20506;-85
2023/04/13 03:17:29;;;;;;;8.50;1.70;;;;;;;7.67;53.55;100457.75;5012803;28;20446;-86
2023/04/13 03:19:55;;;;;;;1.75;1.33;;;;;;;7.67;52.98;100478.34;5012505;28;20033;-86
2023/04/13 03:22:22;;;;;;;7.90;2.70;;;;;;;7.57;54.13;100464.16;5029102;28;20030;-86
2023/04/13 03:24:47;;;;;;;2.50;1.23;;;;;;;7.43;54.57;100453.53;5014125;28;20085;-85
2023/04/13 03:27:13;;;;;;;6.30;3.35;;;;;;;7.51;53.43;100456.66;5012488;28;20475;-85
2023/04/13 03:29:38;;;;;;;3.97;2.10;;;;;;;7.67;53.24;100475.78;5045702;28;20030;-85
2023/04/13 03:32:04;;;;;;;2.85;1.23;;;;;;;7.57;52.57;100459.00;4995918;28;20046;-86
2023/04/13 03:34:30;;;;;;;2.10;1.30;;;;;;;7.64;53.58;100478.44;5012372;28;20045;-85
2023/04/13 03:36:56;;;;;;;1.73;0.82;;;;;;;7.71;53.67;100486.78;5028843;28;20080;-86
2023/04/13 03:39:21;;;;;;;1.42;0.95;;;;;;;7.65;53.18;100487.84;5028695;28;20030;-85
2023/04/13 03:41:46;;;;;;;2.85;1.35;;;;;;;7.69;53.62;100466.25;5028584;28;20104;-85
2023/04/13 03:44:12;;;;;;;1.35;1.00;;;;;;;7.75;53.01;100470.31;5018557;28;20034;-84
2023/04/13 03:46:37;;;;;;;1.00;0.80;;;;;;;7.68;53.27;100469.72;4993565;28;20053;-82
2023/04/13 03:49:06;;;;;;;1.23;0.95;;;;;;;7.69;53.31;100480.88;4979132;28;20079;-82
2023/04/13 03:51:31;;;;;;;1.40;1.00;;;;;;;7.59;53.00;100477.81;4979660;28;20411;-82
2023/04/13 03:53:57;;;;;;;1.15;0.82;;;;;;;7.43;52.96;100453.53;5012085;28;20036;-84
2023/04/13 03:56:22;;;;;;;1.67;0.70;;;;;;;7.60;53.00;100491.50;4995428;28;20026;-85
2023/04/13 03:58:48;;;;;;;1.80;0.98;;;;;;;7.51;52.80;100479.84;4995634;28;20036;-84
2023/04/13 04:01:13;;;;;;;1.05;0.82;;;;;;;7.26;52.90;100463.63;4994971;28;20030;-83
2023/04/13 04:03:39;;;;;;;2.00;1.23;;;;;;;7.50;53.11;100491.03;4995601;28;20536;-83
2023/04/13 04:06:05;;;;;;;1.75;0.93;;;;;;;7.49;53.47;100481.63;4995095;28;20033;-86
2023/04/13 04:08:31;;;;;;;1.33;0.93;;;;;;;7.31;53.30;100472.88;4995170;28;20244;-84
2023/04/13 04:10:57;;;;;;;1.90;1.33;;;;;;;7.49;52.83;100491.94;5011777;28;20487;-83
2023/04/13 04:13:22;;;;;;;1.45;1.00;;;;;;;7.50;52.49;100491.03;4989409;28;20026;-86
2023/04/13 04:15:47;;;;;;;1.23;0.82;;;;;;;7.48;52.93;100488.53;5011397;28;20034;-83
2023/04/13 04:18:13;;;;;;;2.03;1.35;;;;;;;7.41;53.51;100475.94;5010482;28;20041;-83
2023/04/13 04:20:38;;;;;;;2.10;1.40;;;;;;;7.45;52.99;100482.63;5011375;28;20030;-80
2023/04/13 04:23:04;;;;;;;1.40;1.15;;;;;;;7.58;52.87;100504.44;5010704;28;20022;-91
2023/04/13 04:25:32;;;;;;;3.10;1.60;;;;;;;7.47;54.02;100481.69;5010744;28;20022;-82
2023/04/13 04:27:57;;;;;;;1.58;1.08;;;;;;;7.59;53.50;100495.84;4994251;28;20026;-86
2023/04/13 04:30:23;;;;;;;1.38;1.10;;;;;;;7.70;53.72;100514.28;5011091;28;20030;-87
2023/04/13 04:32:53;;;;;;;2.85;1.63;;;;;;;7.78;53.23;100516.56;4994913;28;20553;-89
2023/04/13 04:35:25;;;;;;;3.90;1.58;;;;;;;7.79;53.30;100517.41;5007551;28;20026;-85
2023/04/13 04:37:54;;;;;;;1.88;1.27;;;;;;;7.75;53.33;100493.47;5006549;28;20030;-84
2023/04/13 04:40:20;;;;;;;3.92;1.20;;;;;;;7.89;52.58;100519.53;5003842;28;20172;-88
2023/04/13 04:42:45;;;;;;;1.80;1.35;;;;;;;7.85;52.98;100515.41;5011760;28;20064;-85
2023/04/13 04:45:13;;;;;;;3.65;1.42;;;;;;;7.83;53.00;100496.59;4994519;28;20034;-81
2023/04/13 04:47:42;;;;;;;3.63;1.48;;;;;;;7.90;52.76;100499.78;4994421;28;20049;-83
2023/04/13 04:50:11;;;;;;;1.10;1.00;;;;;;;7.95;52.18;100508.16;5010963;28;20029;-81
2023/04/13 04:52:37;;;;;;;1.02;0.90;;;;;;;8.02;52.30;100515.56;5007394;28;20026;-86
2023/04/13 04:55:05;;;;;;;1.10;0.88;;;;;;;7.77;52.41;100494.28;4974788;28;20097;-86
2023/04/13 04:57:33;;;;;;;2.47;1.13;;;;;;;8.01;52.39;100519.06;5010750;28;20116;-88
2023/04/13 05:00:00;;;;;;;1.27;0.63;;;;;;;8.04;52.72;100513.75;5010568;28;20080;-83
2023/04/13 05:02:25;;;;;;;2.40;1.25;;;;;;;8.05;52.43;100510.28;4994437;28;20446;-81
2023/04/13 05:04:52;;;;;;;1.42;1.05;;;;;;;8.09;52.34;100521.31;4992148;28;20030;-83
2023/04/13 05:07:17;;;;;;;1.77;1.20;;;;;;;8.15;52.56;100509.91;5005652;28;20026;-82
2023/04/13 05:09:43;;;;;;;1.88;1.20;;;;;;;8.32;52.17;100512.66;4994304;28;20042;-83
2023/04/13 05:12:09;;;;;;;1.17;0.90;;;;;;;8.53;51.98;100526.41;4992132;28;20503;-79
2023/04/13 05:14:35;;;;;;;2.65;1.00;;;;;;;8.70;52.04;100528.28;5004594;28;20041;-90
2023/04/13 05:17:00;;;;;;;0.90;0.75;;;;;;;8.78;51.57;100531.38;4993148;28;20030;-91
2023/04/13 05:19:27;;;;;;;1.38;1.20;;;;;;;8.87;51.68;100531.00;4979807;28;20450;-86
2023/04/13 05:21:53;;;;;;;0.90;0.65;;;;;;;8.91;50.46;100507.56;5006342;28;20033;-82
2023/04/13 05:24:18;;;;;;;1.00;0.90;;;;;;;9.18;50.07;100520.16;5007510;28;20029;-82
2023/04/13 05:26:44;;;;;;;2.00;1.10;;;;;;;9.21;50.24;100527.75;5028540;28;20036;-82
2023/04/13 05:29:09;;;;;;;2.28;1.15;;;;;;;9.26;50.90;100523.22;5011966;28;20030;-84
2023/04/13 05:31:35;;;;;;;1.30;1.10;;;;;;;9.34;50.96;100528.91;4996220;28;20053;-85
2023/04/13 05:34:01;;;;;;;2.03;1.33;;;;;;;9.51;50.73;100527.25;4985168;28;20084;-88
2023/04/13 05:36:31;;;;;;;3.97;2.50;;;;;;;9.40;51.09;100505.34;5009309;28;20680;-84
2023/04/13 05:39:00;;;;;;;2.50;1.13;;;;;;;9.38;52.32;100486.53;5028782;28;20030;-83
2023/04/13 05:41:26;;;;;;;3.45;2.92;;;;;;;9.54;53.22;100512.50;5028933;28;20041;-80
2023/04/13 05:43:51;;;;;;;2.88;1.65;;;;;;;9.42;53.94;100498.38;5013213;28;20073;-82
2023/04/13 05:46:17;;;;;;;1.52;0.88;;;;;;;9.69;53.79;100531.59;5010315;28;20062;-84
2023/04/13 05:48:42;;;;;;;1.48;1.23;;;;;;;9.76;54.25;100527.81;5007109;28;20060;-88
2023/04/13 05:51:09;;;;;;;2.40;1.25;;;;;;;9.94;53.34;100536.44;4980508;28;20036;-83
2023/04/13 05:53:35;;;;;;;1.40;1.15;;;;;;;10.04;53.32;100525.59;5019306;28;20501;-82
2023/04/13 05:56:00;;;;;;;2.08;1.23;;;;;;;10.01;52.91;100506.78;4998920;28;20036;-86
2023/04/13 05:58:26;;;;;;;2.15;0.90;;;;;;;10.10;51.20;100519.28;4993968;28;20168;-87
2023/04/13 06:00:51;;;;;;;1.27;1.00;;;;;;;10.24;51.00;100523.81;4996466;28;20045;-86
2023/04/13 06:03:19;;;;;;;3.38;1.45;;;;;;;10.37;50.56;100513.69;5008875;28;20491;-91
2023/04/13 06:05:45;;;;;;;3.53;0.90;;;;;;;10.47;49.58;100520.09;5028217;28;20041;-84
2023/04/13 06:08:12;;;;;;;1.42;1.13;;;;;;;10.72;49.56;100517.09;5012626;28;20490;-85
2023/04/13 06:10:37;;;;;;;1.60;1.30;;;;;;;10.85;50.40;100510.38;5006721;28;20031;-85
2023/04/13 06:13:03;;;;;;;1.77;1.30;;;;;;;10.97;49.33;100516.66;4993688;28;20044;-88
2023/04/13 06:15:29;;;;;;;2.13;1.40;;;;;;;11.02;49.05;100507.75;4987051;28;20033;-85
2023/04/13 06:17:55;;;;;;;1.90;1.48;;;;;;;11.13;49.24;100515.78;5010342;28;20052;-83
2023/04/13 06:20:20;;;;;;;5.45;1.52;;;;;;;11.25;48.93;100503.09;5007510;28;20487;-85
2023/04/13 06:22:46;;;;;;;1.95;1.52;;;;;;;11.46;48.52;100504.53;4999771;28;20045;-87
2023/04/13 06:25:12;;;;;;;1.60;0.88;;;;;;;11.66;48.23;100508.63;5006199;28;20503;-91
2023/04/13 06:27:38;;;;;;;1.60;1.05;;;;;;;11.62;48.31;100502.78;5002331;28;20129;-85
2023/04/13 06:30:07;;;;;;;2.50;1.23;;;;;;;11.85;47.79;100514.47;5021898;28;20030;-84
2023/04/13 06:32:32;;;;;;;2.35;1.40;;;;;;;11.96;47.96;100511.28;5023767;28;20109;-85
2023/04/13 06:34:58;;;;;;;2.53;1.35;;;;;;;12.12;45.87;100511.28;5017136;28;20030;-82
2023/04/13 06:37:23;;;;;;;1.20;0.90;;;;;;;12.19;45.92;100505.66;5028489;28;20021;-87
2023/04/13 06:39:49;;;;;;;0.90;0.77;;;;;;;12.25;46.41;100497.50;5007439;28;20040;-90
2023/04/13 06:42:14;;;;;;;2.25;0.98;;;;;;;12.25;45.96;100494.91;5020437;28;20034;-88
2023/04/13 06:44:41;;;;;;;2.67;1.30;;;;;;;12.49;46.52;100502.19;5027914;28;20045;-88
2023/04/13 06:47:06;;;;;;;1.60;1.08;;;;;;;12.61;45.69;100506.66;5015788;28;20041;-84
2023/04/13 06:49:32;;;;;;;1.73;1.10;;;;;;;12.79;45.70;100505.56;5011592;28;20029;-87
2023/04/13 06:51:58;;;;;;;6.30;1.30;;;;;;;13.00;44.52;100520.78;5031842;28;20033;-85
2023/04/13 06:54:24;;;;;;;1.25;0.98;;;;;;;12.81;43.96;100464.78;5031096;28;20040;-89
2023/04/13 06:56:49;;;;;;;4.47;1.70;;;;;;;13.04;43.75;100515.28;5006860;28;20037;-85
2023/04/13 06:59:15;;;;;;;1.52;1.05;;;;;;;13.06;44.03;100503.03;5012936;28;20042;-93
2023/04/13 07:01:41;;;;;;;1.92;1.27;;;;;;;13.20;43.55;100508.28;4989594;28;20458;-83
2023/04/13 07:04:06;;;;;;;1.83;1.20;;;;;;;13.46;45.03;100509.22;5013185;28;20576;-86
2023/04/13 07:06:32;;;;;;;1.25;1.02;;;;;;;13.74;45.83;100517.88;5010744;28;20060;-88
2023/04/13 07:08:58;;;;;;;1.08;0.80;;;;;;;13.90;42.65;100520.34;5010270;28;20068;-85
2023/04/13 07:11:26;;;;;;;2.67;1.05;;;;;;;14.05;48.71;100495.94;5011168;28;20378;-92
2023/04/13 07:13:52;;;;;;;2.08;1.33;;;;;;;14.16;42.75;100487.44;4997572;28;20405;-91
2023/04/13 07:16:17;;;;;;;2.78;1.33;;;;;;;14.09;41.44;100475.78;4999627;28;20033;-88
2023/04/13 07:18:43;;;;;;;1.45;1.08;;;;;;;14.27;42.19;100498.00;5010670;28;20667;-85
2023/04/13 07:21:08;;;;;;;1.88;1.20;;;;;;;14.48;41.86;100507.00;5002135;28;20041;-92
2023/04/13 07:23:34;;;;;;;1.80;1.00;;;;;;;14.61;41.82;100510.44;5023002;28;20037;-92
2023/04/13 07:26:00;;;;;;;3.53;1.40;;;;;;;14.78;40.78;100503.25;5027935;28;20066;-91
2023/04/13 07:28:26;;;;;;;2.28;1.38;;;;;;;14.74;41.42;100499.19;4994521;28;20038;-87
2023/04/13 07:30:51;;;;;;;3.08;1.88;;;;;;;14.88;41.87;100506.91;4998750;28;20040;-92
2023/04/13 07:33:17;;;;;;;3.83;1.90;;;;;;;14.93;41.59;100515.22;5010096;28;20112;-90
2023/04/13 07:35:42;;;;;;;3.50;1.58;;;;;;;14.84;41.48;100485.41;5016989;28;20025;-90
2023/04/13 07:38:07;;;;;;;2.50;1.50;;;;;;;14.97;40.65;100505.44;5012739;28;20033;-85
2023/04/13 07:40:34;;;;;;;2.53;1.55;;;;;;;14.99;40.31;100499.16;5010114;28;20034;-83
2023/04/13 07:43:00;;;;;;;5.78;2.00;;;;;;;15.02;41.04;100519.78;4998799;28;20026;-89
2023/04/13 07:45:28;;;;;;;2.88;1.48;;;;;;;15.11;41.96;100513.94;5010925;28;20041;-84
2023/04/13 07:47:54;;;;;;;5.55;1.38;;;;;;;15.03;42.54;100499.78;5011826;28;20557;-85
2023/04/13 07:50:19;;;;;;;2.15;1.27;;;;;;;14.99;42.96;100504.38;5010356;28;20038;-85
2023/04/13 07:52:45;;;;;;;1.92;1.25;;;;;;;15.05;43.28;100503.13;4988099;28;20037;-86
2023/04/13 07:55:10;;;;;;;1.77;1.30;;;;;;;15.20;42.84;100515.91;4999920;28;20416;-90
2023/04/13 07:57:36;;;;;;;1.50;1.02;;;;;;;15.21;43.27;100503.72;5006124;28;20034;-85
2023/04/13 08:00:03;;;;;;;2.20;1.30;;;;;;;15.31;42.79;100498.69;4992369;28;20529;-87
2023/04/13 08:02:29;;;;;;;1.30;0.90;;;;;;;15.25;43.21;100493.94;5001240;28;20048;-89
2023/04/13 08:04:55;;;;;;;6.45;3.70;;;;;;;15.37;43.38;100508.69;5031392;28;20112;-86
2023/04/13 08:07:21;;;;;;;7.05;4.00;;;;;;;15.41;43.07;100500.53;5013438;28;20086;-87
2023/04/13 08:09:48;;;;;;;4.15;2.42;;;;;;;15.35;42.81;100490.56;5027531;28;20026;-87
2023/04/13 08:12:13;;;;;;;2.13;1.50;;;;;;;15.50;42.61;100506.88;5049615;28;20053;-87
2023/04/13 08:14:39;;;;;;;2.25;1.40;;;;;;;15.55;42.11;100486.53;5014566;28;20061;-85
2023/04/13 08:17:04;;;;;;;2.08;1.38;;;;;;;15.69;42.54;100483.78;5036558;28;20032;-86
2023/04/13 08:19:31;;;;;;;2.63;1.40;;;;;;;15.79;42.77;100470.91;5032791;28;20439;-90
2023/04/13 08:21:57;;;;;;;4.03;2.97;;;;;;;15.90;41.35;100468.34;5017828;28;20025;-86
2023/04/13 08:24:23;;;;;;;5.18;1.98;;;;;;;16.22;40.90;100481.63;5030777;28;20025;-90
2023/04/13 08:26:51;;;;;;;6.10;3.17;;;;;;;16.34;40.80;100469.44;5029913;28;20085;-84
2023/04/13 08:29:16;;;;;;;8.30;4.05;;;;;;;16.32;40.86;100466.94;5012622;28;20060;-84
2023/04/13 08:31:42;;;;;;;2.00;1.20;;;;;;;16.55;40.51;100486.06;5012425;28;20495;-83
2023/04/13 08:34:09;;;;;;;3.00;2.35;;;;;;;16.55;40.07;100482.63;5029034;28;20041;-86
2023/04/13 08:36:36;;;;;;;3.78;1.95;;;;;;;16.64;40.10;100489.78;5031752;28;20553;-85
2023/04/13 08:39:01;;;;;;;2.85;1.88;;;;;;;16.77;40.34;100487.91;5016803;28;20071;-91
2023/04/13 08:41:27;;;;;;;5.53;3.33;;;;;;;16.69;39.94;100438.03;5013070;28;20033;-84
2023/04/13 08:43:52;;;;;;;2.80;1.10;;;;;;;17.07;38.76;100484.69;5029579;28;20402;-87
2023/04/13 08:46:21;;;;;;;3.72;1.88;;;;;;;17.11;39.00;100491.38;5017876;28;20032;-88
2023/04/13 08:48:48;;;;;;;2.22;1.33;;;;;;;17.08;38.29;100480.31;5038057;28;20029;-88
2023/04/13 08:51:13;;;;;;;2.28;1.40;;;;;;;17.11;37.56;100488.75;5029736;28;20036;-85
2023/04/13 08:53:39;;;;;;;2.70;1.30;;;;;;;17.06;38.51;100482.22;5012229;28;20344;-87
2023/04/13 08:56:07;;;;;;;3.10;1.25;;;;;;;16.89;37.92;100442.53;5029223;28;20033;-86
2023/04/13 08:58:33;;;;;;;2.80;1.48;;;;;;;17.35;38.82;100485.16;5013878;28;20116;-84
2023/04/13 09:00:59;;;;;;;2.67;1.50;;;;;;;17.54;38.14;100469.66;5011052;28;20030;-86
2023/04/13 09:03:25;;;;;;;1.60;1.00;;;;;;;17.87;37.67;100467.88;4999039;28;20200;-82
2023/04/13 09:05:55;;;;;;;2.33;1.20;;;;;;;17.82;36.97;100454.38;5009268;28;20057;-87
2023/04/13 09:08:21;;;;;;;2.40;1.55;;;;;;;17.88;37.27;100452.06;5000250;28;20108;-85
2023/04/13 09:10:47;;;;;;;2.10;1.30;;;;;;;18.11;36.90;100438.88;4993673;28;20040;-89
2023/04/13 09:13:12;;;;;;;4.95;1.80;;;;;;;18.14;35.46;100428.13;5025845;28;20061;-84
2023/04/13 09:15:39;;;;;;;2.42;1.23;;;;;;;18.22;35.46;100441.44;5029581;28;20486;-88
2023/04/13 09:18:08;;;;;;;3.28;1.30;;;;;;;18.35;35.90;100449.91;5008718;28;20083;-84
2023/04/13 09:20:34;;;;;;;3.60;2.00;;;;;;;18.46;35.00;100441.13;4980483;28;20403;-88
2023/04/13 09:22:59;;;;;;;2.10;1.20;;;;;;;18.41;34.13;100438.91;5029107;28;20037;-87
2023/04/13 09:25:27;;;;;;;6.97;1.45;;;;;;;18.43;33.77;100447.47;4994710;28;20044;-92
2023/04/13 09:27:52;;;;;;;2.78;1.00;;;;;;;18.58;33.37;100455.81;5011059;28;20052;-85
2023/04/13 09:30:23;;;;;;;1.88;1.10;;;;;;;18.65;32.72;100448.28;5027867;28;20034;-85
2023/04/13 09:33:03;;;;;;;2.30;1.10;;;;;;;18.82;33.07;100439.81;4998846;28;20137;-92
2023/04/13 09:35:32;;;;;;;2.10;1.27;;;;;;;19.01;30.79;100449.53;5009240;28;20026;-89
2023/04/13 09:37:58;;;;;;;4.35;1.20;;;;;;;19.05;30.88;100440.44;4992454;28;20036;-83
2023/04/13 09:40:24;;;;;;;5.20;1.30;;;;;;;19.23;31.29;100438.00;4991644;28;20625;-88
2023/04/13 09:43:00;;;;;;;1.80;1.10;;;;;;;19.19;31.00;100412.06;5008451;28;20038;-87
2023/04/13 09:45:36;;;;;;;1.50;1.00;;;;;;;19.49;29.86;100444.41;5008377;28;20025;-85
2023/04/13 09:48:14;;;;;;;1.63;0.90;;;;;;;19.54;29.92;100436.09;5010402;28;20036;-84
2023/04/13 09:50:40;;;;;;;2.10;1.00;;;;;;;19.55;30.10;100432.50;5008861;28;20034;-84
2023/04/13 09:53:06;;;;;;;2.38;1.55;;;;;;;19.55;31.13;100422.84;5008611;28;20103;-85
2023/04/13 09:55:32;;;;;;;1.83;1.15;;;;;;;19.57;31.13;100431.47;5008889;28;20050;-84
2023/04/13 09:58:08;;;;;;;2.08;1.20;;;;;;;19.61;30.33;100411.84;5021648;28;20075;-85
2023/04/13 10:00:37;;;;;;;3.08;1.40;;;;;;;19.77;30.95;100422.63;5016312;28;20525;-85
2023/04/13 10:03:02;;;;;;;2.85;0.82;;;;;;;20.04;31.58;100418.44;4993285;28;20042;-83
2023/04/13 10:05:28;;;;;;;6.20;3.75;;;;;;;19.96;29.95;100394.66;5020734;28;20025;-88
2023/04/13 10:07:55;;;;;;;2.03;1.00;;;;;;;19.99;30.17;100384.72;5031870;28;20021;-89
2023/04/13 10:10:21;;;;;;;1.55;1.00;;;;;;;20.13;30.32;100403.63;5048700;28;20036;-84
2023/04/13 10:12:48;;;;;;;1.42;1.00;;;;;;;20.05;29.45;100396.44;5014155;28;20030;-83
2023/04/13 10:15:29;;;;;;;1.77;0.98;;;;;;;20.08;30.34;100388.31;5012295;28;20029;-85
2023/04/13 10:18:13;;;;;;;3.60;2.40;;;;;;;20.38;30.22;100395.13;5028319;28;20030;-94
2023/04/13 10:20:39;;;;;;;1.40;1.00;;;;;;;20.43;29.71;100392.09;5039699;28;20577;-92
2023/04/13 10:23:04;;;;;;;2.15;0.85;;;;;;;20.49;30.53;100397.59;5040234;28;20029;-87
2023/04/13 10:25:30;;;;;;;25.17;15.70;;;;;;;20.30;29.69;100372.19;5038951;28;20052;-85
2023/04/13 10:27:57;;;;;;;3.50;2.35;;;;;;;20.69;29.52;100397.53;5054747;28;20098;-91
2023/04/13 10:30:23;;;;;;;4.78;2.67;;;;;;;20.74;28.81;100396.09;5006332;28;20032;-89
2023/04/13 10:32:48;;;;;;;2.25;1.20;;;;;;;20.81;28.76;100398.97;5018702;28;20053;-91
2023/04/13 10:35:14;;;;;;;8.07;3.63;;;;;;;20.74;29.70;100390.84;5020402;28;20559;-88
2023/04/13 10:37:42;;;;;;;6.10;3.63;;;;;;;20.83;28.57;100394.41;5015758;28;20403;-91
2023/04/13 10:40:08;;;;;;;7.63;3.08;;;;;;;20.86;28.40;100387.06;5010889;28;20471;-88
2023/04/13 10:42:45;;;;;;;1.77;1.00;;;;;;;20.82;28.55;100398.81;5018919;28;20033;-88
2023/04/13 10:45:22;;;;;;;1.45;1.08;;;;;;;20.60;29.08;100389.53;5040983;28;20025;-87
2023/04/13 10:47:48;;;;;;;1.90;1.10;;;;;;;20.55;29.02;100362.03;5037440;28;20033;-93
2023/04/13 10:50:18;;;;;;;5.93;2.97;;;;;;;20.72;28.83;100382.28;5039022;28;20029;-87
2023/04/13 10:53:03;;;;;;;3.53;1.48;;;;;;;20.91;28.79;100384.81;5055584;28;20597;-87
2023/04/13 10:55:29;;;;;;;2.25;1.17;;;;;;;20.98;29.20;100386.84;5061191;28;20063;-91
2023/04/13 10:57:58;;;;;;;6.15;2.45;;;;;;;21.22;28.48;100389.72;5042593;28;20021;-91
2023/04/13 11:00:24;;;;;;;10.68;5.90;;;;;;;21.20;27.53;100389.06;5039668;28;20769;-91
2023/04/13 11:02:52;;;;;;;0.95;0.70;;;;;;;21.22;27.08;100389.72;5021153;28;20065;-90
2023/04/13 11:05:19;;;;;;;3.83;1.95;;;;;;;21.35;27.54;100390.25;5018131;28;20030;-85
2023/04/13 11:07:45;;;;;;;1.55;1.10;;;;;;;21.45;27.57;100384.91;5018995;28;20057;-94
2023/04/13 11:10:11;;;;;;;2.35;1.17;;;;;;;21.31;27.12;100370.44;5035832;28;20418;-88
2023/04/13 11:12:37;;;;;;;5.18;2.20;;;;;;;21.29;27.51;100369.78;5019249;28;20022;-91
2023/04/13 11:15:02;;;;;;;2.25;1.10;;;;;;;21.39;28.05;100378.41;5026483;28;20521;-95
2023/04/13 11:17:28;;;;;;;8.88;6.03;;;;;;;21.50;27.23;100371.28;5020776;28;20486;-89
2023/04/13 11:19:54;;;;;;;2.70;1.20;;;;;;;21.37;27.29;100361.97;5035535;28;20037;-89
2023/04/13 11:22:24;;;;;;;2.38;1.45;;;;;;;21.55;28.18;100372.47;5018638;28;20494;-86
2023/04/13 11:24:50;;;;;;;1.67;1.05;;;;;;;21.58;27.86;100369.53;5018398;28;20021;-85
2023/04/13 11:27:23;;;;;;;3.22;1.67;;;;;;;21.63;27.29;100366.44;5001996;28;20031;-88